This is the latest recevied weather packets stored in our database for station/object I1SXT-13. If no packets are shown the sender has not sent any weather packets the latest 10 day(s).
| Time | Temp. | Humidity | Pressure | Rain* | Wind** | Luminosity | Snow |
|---|---|---|---|---|---|---|---|
| 1777905570 | 19.44° C | 65% | 1017.8 hPa | 0 mm | - | - | - |
| 1777905266 | 19.44° C | 67% | 1018.1 hPa | 0 mm | - | - | - |
| 1777904968 | 20° C | 64% | 1018.9 hPa | 0 mm | - | - | - |
| 1777904665 | 20° C | 64% | 1018.3 hPa | 0 mm | - | - | - |
| 1777903766 | 20.56° C | 64% | 1018.6 hPa | 0 mm | - | - | - |
| 1777903469 | 20° C | 64% | 1019 hPa | 0 mm | - | - | - |
| 1777903165 | 20.56° C | 62% | 1019.2 hPa | 0 mm | - | - | - |
| 1777902867 | 20.56° C | 63% | 1018.6 hPa | 0 mm | - | - | - |
| 1777902564 | 21.11° C | 62% | 1018.4 hPa | 0 mm | - | - | - |
| 1777902266 | 21.11° C | 63% | 1018.3 hPa | 0 mm | - | - | - |
| 1777901969 | 21.11° C | 63% | 1018.7 hPa | 0 mm | - | - | - |
| 1777901665 | 21.67° C | 63% | 1018.9 hPa | 0 mm | - | - | - |
| 1777901064 | 19.44° C | 68% | 1019.9 hPa | 0 mm | - | - | - |
| 1777900767 | 20° C | 66% | 1019 hPa | 0 mm | - | - | - |
| 1777900165 | 21.11° C | 65% | 1019.8 hPa | 0 mm | - | - | - |
| 1777899868 | 20.56° C | 63% | 1019 hPa | 0 mm | - | - | - |
| 1777899564 | 19.44° C | 66% | 1018.8 hPa | 0 mm | - | - | - |
| 1777899267 | 20° C | 67% | 1019.8 hPa | 0 mm | - | - | - |
| 1777898970 | 20° C | 65% | 1019.4 hPa | 0 mm | - | - | - |
| 1777898666 | 19.44° C | 63% | 1019.4 hPa | 0 mm | - | - | - |
| 1777898369 | 20° C | 64% | 1019.9 hPa | 0 mm | - | - | - |
| 1777898065 | 20° C | 59% | 1020 hPa | 0 mm | - | - | - |
| 1777897767 | 21.11° C | 58% | 1020.3 hPa | 0 mm | - | - | - |
| 1777897463 | 21.11° C | 59% | 1020.2 hPa | 0 mm | - | - | - |
| 1777897166 | 20.56° C | 61% | 1020 hPa | 0 mm | - | - | - |
* Rain since midnight (hover to see other rain measurements)
** Current wind speed in m/s (hover to see current wind gust speed)